sensor_id;sensor_type;location;lat;lon;timestamp;pressure;altitude;pressure_sealevel;temperature
49785;BMP280;35679;38.732;-121.358;2024-03-22T00:02:45;101364.78;;;22.40
49785;BMP280;35679;38.732;-121.358;2024-03-22T00:05:32;101359.16;;;22.41
49785;BMP280;35679;38.732;-121.358;2024-03-22T00:08:20;101358.34;;;22.41
49785;BMP280;35679;38.732;-121.358;2024-03-22T00:11:08;101357.31;;;22.42
49785;BMP280;35679;38.732;-121.358;2024-03-22T00:13:55;101362.69;;;22.42
49785;BMP280;35679;38.732;-121.358;2024-03-22T00:16:43;101352.75;;;22.42
49785;BMP280;35679;38.732;-121.358;2024-03-22T00:19:31;101353.56;;;22.43
49785;BMP280;35679;38.732;-121.358;2024-03-22T00:22:18;101349.44;;;22.40
49785;BMP280;35679;38.732;-121.358;2024-03-22T00:25:06;101348.63;;;22.40
49785;BMP280;35679;38.732;-121.358;2024-03-22T00:27:55;101346.75;;;22.40
49785;BMP280;35679;38.732;-121.358;2024-03-22T00:30:43;101344.06;;;22.40
49785;BMP280;35679;38.732;-121.358;2024-03-22T00:33:31;101336.84;;;22.41
49785;BMP280;35679;38.732;-121.358;2024-03-22T00:36:18;101334.16;;;22.41
49785;BMP280;35679;38.732;-121.358;2024-03-22T00:39:06;101342.22;;;22.41
49785;BMP280;35679;38.732;-121.358;2024-03-22T00:41:54;101340.34;;;22.41
49785;BMP280;35679;38.732;-121.358;2024-03-22T00:44:42;101344.06;;;22.40
49785;BMP280;35679;38.732;-121.358;2024-03-22T00:47:30;101345.94;;;22.40
49785;BMP280;35679;38.732;-121.358;2024-03-22T00:50:18;101345.94;;;22.40
49785;BMP280;35679;38.732;-121.358;2024-03-22T00:53:05;101340.56;;;22.40
49785;BMP280;35679;38.732;-121.358;2024-03-22T00:55:55;101344.31;;;22.39
49785;BMP280;35679;38.732;-121.358;2024-03-22T00:58:46;101347.00;;;22.39
49785;BMP280;35679;38.732;-121.358;2024-03-22T01:01:33;101352.38;;;22.39
49785;BMP280;35679;38.732;-121.358;2024-03-22T01:04:21;101345.34;;;22.38
49785;BMP280;35679;38.732;-121.358;2024-03-22T01:07:09;101339.97;;;22.38
49785;BMP280;35679;38.732;-121.358;2024-03-22T01:09:56;101347.47;;;22.36
49785;BMP280;35679;38.732;-121.358;2024-03-22T01:12:44;101349.09;;;22.37
49785;BMP280;35679;38.732;-121.358;2024-03-22T01:15:32;101344.78;;;22.36
49785;BMP280;35679;38.732;-121.358;2024-03-22T01:18:19;101353.28;;;22.33
49785;BMP280;35679;38.732;-121.358;2024-03-22T01:21:07;101343.59;;;22.32
49785;BMP280;35679;38.732;-121.358;2024-03-22T01:23:55;101348.38;;;22.30
49785;BMP280;35679;38.732;-121.358;2024-03-22T01:26:42;101344.88;;;22.29
49785;BMP280;35679;38.732;-121.358;2024-03-22T01:29:30;101355.03;;;22.27
49785;BMP280;35679;38.732;-121.358;2024-03-22T01:32:18;101360.59;;;22.26
49785;BMP280;35679;38.732;-121.358;2024-03-22T01:35:07;101358.16;;;22.24
49785;BMP280;35679;38.732;-121.358;2024-03-22T01:37:55;101365.38;;;22.24
49785;BMP280;35679;38.732;-121.358;2024-03-22T01:40:43;101362.09;;;22.22
49785;BMP280;35679;38.732;-121.358;2024-03-22T01:43:30;101361.50;;;22.20
49785;BMP280;35679;38.732;-121.358;2024-03-22T01:46:18;101363.38;;;22.19
49785;BMP280;35679;38.732;-121.358;2024-03-22T01:49:07;101358.81;;;22.20
49785;BMP280;35679;38.732;-121.358;2024-03-22T01:51:55;101363.00;;;22.16
49785;BMP280;35679;38.732;-121.358;2024-03-22T01:54:43;101372.13;;;22.15
49785;BMP280;35679;38.732;-121.358;2024-03-22T01:57:31;101373.16;;;22.14
49785;BMP280;35679;38.732;-121.358;2024-03-22T02:00:19;101374.66;;;22.10
49785;BMP280;35679;38.732;-121.358;2024-03-22T02:03:08;101380.03;;;22.10
49785;BMP280;35679;38.732;-121.358;2024-03-22T02:05:56;101376.75;;;22.08
49785;BMP280;35679;38.732;-121.358;2024-03-22T02:08:43;101375.94;;;22.07
49785;BMP280;35679;38.732;-121.358;2024-03-22T02:11:31;101372.88;;;22.04
49785;BMP280;35679;38.732;-121.358;2024-03-22T02:14:19;101366.69;;;22.03
49785;BMP280;35679;38.732;-121.358;2024-03-22T02:17:06;101369.56;;;22.02
49785;BMP280;35679;38.732;-121.358;2024-03-22T02:19:54;101365.47;;;21.99
49785;BMP280;35679;38.732;-121.358;2024-03-22T02:22:42;101368.41;;;21.98
49785;BMP280;35679;38.732;-121.358;2024-03-22T02:25:29;101367.81;;;21.96
49785;BMP280;35679;38.732;-121.358;2024-03-22T02:28:17;101376.91;;;21.95
49785;BMP280;35679;38.732;-121.358;2024-03-22T02:31:05;101360.78;;;21.95
49785;BMP280;35679;38.732;-121.358;2024-03-22T02:33:52;101371.16;;;21.91
49785;BMP280;35679;38.732;-121.358;2024-03-22T02:36:40;101376.78;;;21.90
49785;BMP280;35679;38.732;-121.358;2024-03-22T02:39:28;101376.16;;;21.88
49785;BMP280;35679;38.732;-121.358;2024-03-22T02:42:15;101374.53;;;21.87
49785;BMP280;35679;38.732;-121.358;2024-03-22T02:45:03;101370.41;;;21.84
49785;BMP280;35679;38.732;-121.358;2024-03-22T02:47:51;101374.97;;;21.84
49785;BMP280;35679;38.732;-121.358;2024-03-22T02:50:39;101375.41;;;21.81
49785;BMP280;35679;38.732;-121.358;2024-03-22T02:53:27;101379.16;;;21.80
49785;BMP280;35679;38.732;-121.358;2024-03-22T02:56:15;101370.50;;;21.78
49785;BMP280;35679;38.732;-121.358;2024-03-22T02:59:02;101379.59;;;21.77
49785;BMP280;35679;38.732;-121.358;2024-03-22T03:01:50;101371.75;;;21.76
49785;BMP280;35679;38.732;-121.358;2024-03-22T03:04:38;101369.31;;;21.74
49785;BMP280;35679;38.732;-121.358;2024-03-22T03:07:25;101367.66;;;21.73
49785;BMP280;35679;38.732;-121.358;2024-03-22T03:10:13;101366.00;;;21.72
49785;BMP280;35679;38.732;-121.358;2024-03-22T03:13:01;101361.91;;;21.70
49785;BMP280;35679;38.732;-121.358;2024-03-22T03:15:49;101364.81;;;21.68
49785;BMP280;35679;38.732;-121.358;2024-03-22T03:18:36;101361.53;;;21.66
49785;BMP280;35679;38.732;-121.358;2024-03-22T03:21:24;101370.63;;;21.65
49785;BMP280;35679;38.732;-121.358;2024-03-22T03:24:12;101371.69;;;21.64
49785;BMP280;35679;38.732;-121.358;2024-03-22T03:26:59;101371.09;;;21.62
49785;BMP280;35679;38.732;-121.358;2024-03-22T03:29:48;101370.47;;;21.60
49785;BMP280;35679;38.732;-121.358;2024-03-22T03:32:35;101373.16;;;21.60
49785;BMP280;35679;38.732;-121.358;2024-03-22T03:35:23;101375.28;;;21.58
49785;BMP280;35679;38.732;-121.358;2024-03-22T03:38:10;101370.13;;;21.57
49785;BMP280;35679;38.732;-121.358;2024-03-22T03:40:58;101375.69;;;21.55
49785;BMP280;35679;38.732;-121.358;2024-03-22T03:43:45;101372.44;;;21.53
49785;BMP280;35679;38.732;-121.358;2024-03-22T03:46:33;101379.84;;;21.51
49785;BMP280;35679;38.732;-121.358;2024-03-22T03:49:21;101381.59;;;21.39
49785;BMP280;35679;38.732;-121.358;2024-03-22T03:52:09;101372.44;;;21.53
49785;BMP280;35679;38.732;-121.358;2024-03-22T03:54:56;101377.06;;;21.82
49785;BMP280;35679;38.732;-121.358;2024-03-22T03:57:44;101378.84;;;22.06
49785;BMP280;35679;38.732;-121.358;2024-03-22T04:00:32;101381.09;;;22.09
49785;BMP280;35679;38.732;-121.358;2024-03-22T04:03:19;101380.63;;;22.12
49785;BMP280;35679;38.732;-121.358;2024-03-22T04:06:07;101387.78;;;22.18
49785;BMP280;35679;38.732;-121.358;2024-03-22T04:08:55;101394.38;;;22.22
49785;BMP280;35679;38.732;-121.358;2024-03-22T04:11:43;101390.59;;;22.23
49785;BMP280;35679;38.732;-121.358;2024-03-22T04:14:31;101390.19;;;22.26
49785;BMP280;35679;38.732;-121.358;2024-03-22T04:17:19;101381.69;;;22.29
49785;BMP280;35679;38.732;-121.358;2024-03-22T04:20:07;101381.00;;;22.33
49785;BMP280;35679;38.732;-121.358;2024-03-22T04:22:56;101386.28;;;22.40
49785;BMP280;35679;38.732;-121.358;2024-03-22T04:25:52;101402.41;;;22.40
49785;BMP280;35679;38.732;-121.358;2024-03-22T04:28:40;101394.50;;;22.44
49785;BMP280;35679;38.732;-121.358;2024-03-22T04:31:28;101389.13;;;22.44
49785;BMP280;35679;38.732;-121.358;2024-03-22T04:34:16;101397.09;;;22.51
49785;BMP280;35679;38.732;-121.358;2024-03-22T04:37:04;101400.63;;;22.51
49785;BMP280;35679;38.732;-121.358;2024-03-22T04:39:52;101398.06;;;22.56
49785;BMP280;35679;38.732;-121.358;2024-03-22T04:42:40;101390.56;;;22.58
49785;BMP280;35679;38.732;-121.358;2024-03-22T04:45:27;101388.56;;;22.54
49785;BMP280;35679;38.732;-121.358;2024-03-22T04:48:17;101393.84;;;22.60
49785;BMP280;35679;38.732;-121.358;2024-03-22T04:51:05;101394.66;;;22.61
49785;BMP280;35679;38.732;-121.358;2024-03-22T04:53:53;101401.47;;;22.63
49785;BMP280;35679;38.732;-121.358;2024-03-22T04:56:41;101394.47;;;22.62
49785;BMP280;35679;38.732;-121.358;2024-03-22T04:59:29;101393.97;;;22.65
49785;BMP280;35679;38.732;-121.358;2024-03-22T05:02:17;101398.09;;;22.68
49785;BMP280;35679;38.732;-121.358;2024-03-22T05:05:05;101407.19;;;22.67
49785;BMP280;35679;38.732;-121.358;2024-03-22T05:07:53;101394.13;;;22.70
49785;BMP280;35679;38.732;-121.358;2024-03-22T05:10:40;101393.88;;;22.72
49785;BMP280;35679;38.732;-121.358;2024-03-22T05:13:29;101393.69;;;22.73
49785;BMP280;35679;38.732;-121.358;2024-03-22T05:16:16;101401.16;;;22.71
49785;BMP280;35679;38.732;-121.358;2024-03-22T05:19:04;101405.72;;;22.71
49785;BMP280;35679;38.732;-121.358;2024-03-22T05:21:52;101399.63;;;22.75
49785;BMP280;35679;38.732;-121.358;2024-03-22T05:24:39;101409.34;;;22.76
49785;BMP280;35679;38.732;-121.358;2024-03-22T05:27:27;101399.50;;;22.70
49785;BMP280;35679;38.732;-121.358;2024-03-22T05:30:15;101399.06;;;22.73
49785;BMP280;35679;38.732;-121.358;2024-03-22T05:33:03;101396.56;;;22.72
49785;BMP280;35679;38.732;-121.358;2024-03-22T05:35:50;101400.34;;;22.71
49785;BMP280;35679;38.732;-121.358;2024-03-22T05:38:38;101401.63;;;22.68
49785;BMP280;35679;38.732;-121.358;2024-03-22T05:41:25;101398.69;;;22.70
49785;BMP280;35679;38.732;-121.358;2024-03-22T05:44:13;101403.47;;;22.68
49785;BMP280;35679;38.732;-121.358;2024-03-22T05:47:01;101405.34;;;22.67
49785;BMP280;35679;38.732;-121.358;2024-03-22T05:49:49;101406.41;;;22.66
49785;BMP280;35679;38.732;-121.358;2024-03-22T05:52:37;101402.91;;;22.66
49785;BMP280;35679;38.732;-121.358;2024-03-22T05:55:25;101406.25;;;22.61
49785;BMP280;35679;38.732;-121.358;2024-03-22T05:58:14;101408.72;;;22.63
49785;BMP280;35679;38.732;-121.358;2024-03-22T06:01:02;101408.72;;;22.63
49785;BMP280;35679;38.732;-121.358;2024-03-22T06:03:50;101403.81;;;22.60
49785;BMP280;35679;38.732;-121.358;2024-03-22T06:06:37;101409.63;;;22.57
49785;BMP280;35679;38.732;-121.358;2024-03-22T06:09:26;101404.72;;;22.54
49785;BMP280;35679;38.732;-121.358;2024-03-22T06:12:33;101407.16;;;22.55
49785;BMP280;35679;38.732;-121.358;2024-03-22T06:15:21;101404.72;;;22.54
49785;BMP280;35679;38.732;-121.358;2024-03-22T06:18:08;101415.34;;;22.49
49785;BMP280;35679;38.732;-121.358;2024-03-22T06:20:56;101415.56;;;22.47
49785;BMP280;35679;38.732;-121.358;2024-03-22T06:23:44;101398.97;;;22.50
49785;BMP280;35679;38.732;-121.358;2024-03-22T06:26:31;101395.91;;;22.47
49785;BMP280;35679;38.732;-121.358;2024-03-22T06:29:19;101404.69;;;22.43
49785;BMP280;35679;38.732;-121.358;2024-03-22T06:32:07;101403.22;;;22.40
49785;BMP280;35679;38.732;-121.358;2024-03-22T06:34:55;101412.75;;;22.43
49785;BMP280;35679;38.732;-121.358;2024-03-22T06:37:43;101408.28;;;22.37
49785;BMP280;35679;38.732;-121.358;2024-03-22T06:40:31;101404.75;;;22.36
49785;BMP280;35679;38.732;-121.358;2024-03-22T06:43:18;101403.31;;;22.34
49785;BMP280;35679;38.732;-121.358;2024-03-22T06:46:06;101402.03;;;22.36
49785;BMP280;35679;38.732;-121.358;2024-03-22T06:48:54;101397.13;;;22.33
49785;BMP280;35679;38.732;-121.358;2024-03-22T06:51:41;101397.81;;;22.29
49785;BMP280;35679;38.732;-121.358;2024-03-22T06:54:29;101400.50;;;22.29
49785;BMP280;35679;38.732;-121.358;2024-03-22T06:57:17;101406.31;;;22.26
49785;BMP280;35679;38.732;-121.358;2024-03-22T07:00:05;101400.56;;;22.22
49785;BMP280;35679;38.732;-121.358;2024-03-22T07:02:52;101397.50;;;22.19
49785;BMP280;35679;38.732;-121.358;2024-03-22T07:05:43;101401.03;;;22.19
49785;BMP280;35679;38.732;-121.358;2024-03-22T07:08:32;101387.41;;;22.14
49785;BMP280;35679;38.732;-121.358;2024-03-22T07:11:21;101390.31;;;22.13
49785;BMP280;35679;38.732;-121.358;2024-03-22T07:14:09;101392.44;;;22.11
49785;BMP280;35679;38.732;-121.358;2024-03-22T07:16:57;101392.28;;;22.06
49785;BMP280;35679;38.732;-121.358;2024-03-22T07:19:45;101395.78;;;22.06
49785;BMP280;35679;38.732;-121.358;2024-03-22T07:22:32;101395.41;;;22.03
49785;BMP280;35679;38.732;-121.358;2024-03-22T07:25:20;101405.34;;;22.02
49785;BMP280;35679;38.732;-121.358;2024-03-22T07:28:08;101395.88;;;22.00
49785;BMP280;35679;38.732;-121.358;2024-03-22T07:30:55;101404.97;;;21.99
49785;BMP280;35679;38.732;-121.358;2024-03-22T07:33:43;101401.09;;;21.95
49785;BMP280;35679;38.732;-121.358;2024-03-22T07:36:31;101405.88;;;21.93
49785;BMP280;35679;38.732;-121.358;2024-03-22T07:39:18;101398.28;;;21.90
49785;BMP280;35679;38.732;-121.358;2024-03-22T07:42:06;101387.53;;;21.90
49785;BMP280;35679;38.732;-121.358;2024-03-22T07:44:54;101382.56;;;21.87
49785;BMP280;35679;38.732;-121.358;2024-03-22T07:47:41;101388.19;;;21.85
49785;BMP280;35679;38.732;-121.358;2024-03-22T07:50:30;101377.06;;;21.82
49785;BMP280;35679;38.732;-121.358;2024-03-22T07:53:18;101386.16;;;21.81
49785;BMP280;35679;38.732;-121.358;2024-03-22T07:56:06;101387.41;;;21.78
49785;BMP280;35679;38.732;-121.358;2024-03-22T07:58:53;101377.94;;;21.76
49785;BMP280;35679;38.732;-121.358;2024-03-22T08:01:42;101378.41;;;21.73
49785;BMP280;35679;38.732;-121.358;2024-03-22T08:04:30;101377.59;;;21.73
49785;BMP280;35679;38.732;-121.358;2024-03-22T08:07:18;101370.34;;;21.73
49785;BMP280;35679;38.732;-121.358;2024-03-22T08:10:06;101385.28;;;21.69
49785;BMP280;35679;38.732;-121.358;2024-03-22T08:12:53;101376.84;;;21.66
49785;BMP280;35679;38.732;-121.358;2024-03-22T08:15:41;101373.13;;;21.67
49785;BMP280;35679;38.732;-121.358;2024-03-22T08:18:31;101369.81;;;21.65
49785;BMP280;35679;38.732;-121.358;2024-03-22T08:21:20;101366.53;;;21.63
49785;BMP280;35679;38.732;-121.358;2024-03-22T08:24:07;101371.53;;;21.59
49785;BMP280;35679;38.732;-121.358;2024-03-22T08:26:55;101374.81;;;21.61
49785;BMP280;35679;38.732;-121.358;2024-03-22T08:29:43;101364.53;;;21.58
49785;BMP280;35679;38.732;-121.358;2024-03-22T08:32:31;101370.78;;;21.52
49785;BMP280;35679;38.732;-121.358;2024-03-22T08:35:19;101375.34;;;21.52
49785;BMP280;35679;38.732;-121.358;2024-03-22T08:38:07;101363.72;;;21.51
49785;BMP280;35679;38.732;-121.358;2024-03-22T08:40:57;101366.03;;;21.48
49785;BMP280;35679;38.732;-121.358;2024-03-22T08:43:45;101357.41;;;21.46
49785;BMP280;35679;38.732;-121.358;2024-03-22T08:46:32;101362.97;;;21.44
49785;BMP280;35679;38.732;-121.358;2024-03-22T08:49:20;101366.91;;;21.42
49785;BMP280;35679;38.732;-121.358;2024-03-22T08:52:08;101361.53;;;21.42
49785;BMP280;35679;38.732;-121.358;2024-03-22T08:54:55;101363.03;;;21.38
49785;BMP280;35679;38.732;-121.358;2024-03-22T08:57:43;101357.91;;;21.36
49785;BMP280;35679;38.732;-121.358;2024-03-22T09:00:31;101350.50;;;21.32
49785;BMP280;35679;38.732;-121.358;2024-03-22T09:03:18;101349.47;;;21.33
49785;BMP280;35679;38.732;-121.358;2024-03-22T09:06:08;101352.38;;;21.31
49785;BMP280;35679;38.732;-121.358;2024-03-22T09:08:56;101356.31;;;21.29
49785;BMP280;35679;38.732;-121.358;2024-03-22T09:11:45;101355.28;;;21.30
49785;BMP280;35679;38.732;-121.358;2024-03-22T09:14:32;101352.63;;;21.23
49785;BMP280;35679;38.732;-121.358;2024-03-22T09:17:20;101358.63;;;21.25
49785;BMP280;35679;38.732;-121.358;2024-03-22T09:20:08;101358.00;;;21.23
49785;BMP280;35679;38.732;-121.358;2024-03-22T09:22:56;101353.31;;;21.19
49785;BMP280;35679;38.732;-121.358;2024-03-22T09:25:44;101348.53;;;21.21
49785;BMP280;35679;38.732;-121.358;2024-03-22T09:28:33;101331.00;;;21.18
49785;BMP280;35679;38.732;-121.358;2024-03-22T09:31:21;101346.75;;;21.15
49785;BMP280;35679;38.732;-121.358;2024-03-22T09:34:08;101345.91;;;21.14
49785;BMP280;35679;38.732;-121.358;2024-03-22T09:36:56;101336.66;;;21.10
49785;BMP280;35679;38.732;-121.358;2024-03-22T09:39:45;101337.69;;;21.09
49785;BMP280;35679;38.732;-121.358;2024-03-22T09:42:33;101327.59;;;21.11
49785;BMP280;35679;38.732;-121.358;2024-03-22T09:45:23;101327.19;;;21.08
49785;BMP280;35679;38.732;-121.358;2024-03-22T09:48:11;101327.44;;;21.07
49785;BMP280;35679;38.732;-121.358;2024-03-22T09:51:00;101319.38;;;21.07
49785;BMP280;35679;38.732;-121.358;2024-03-22T09:53:49;101320.88;;;21.03
49785;BMP280;35679;38.732;-121.358;2024-03-22T09:56:38;101319.63;;;20.99
49785;BMP280;35679;38.732;-121.358;2024-03-22T09:59:26;101318.38;;;21.01
49785;BMP280;35679;38.732;-121.358;2024-03-22T10:02:15;101317.19;;;20.97
49785;BMP280;35679;38.732;-121.358;2024-03-22T10:05:03;101307.25;;;20.98
49785;BMP280;35679;38.732;-121.358;2024-03-22T10:07:51;101314.50;;;20.97
49785;BMP280;35679;38.732;-121.358;2024-03-22T10:10:39;101327.75;;;20.92
49785;BMP280;35679;38.732;-121.358;2024-03-22T10:13:26;101321.19;;;20.88
49785;BMP280;35679;38.732;-121.358;2024-03-22T10:16:15;101323.66;;;20.90
49785;BMP280;35679;38.732;-121.358;2024-03-22T10:19:05;101328.38;;;20.88
49785;BMP280;35679;38.732;-121.358;2024-03-22T10:22:04;101330.50;;;20.86
49785;BMP280;35679;38.732;-121.358;2024-03-22T10:24:52;101343.28;;;20.84
49785;BMP280;35679;38.732;-121.358;2024-03-22T10:27:40;101338.97;;;20.83
49785;BMP280;35679;38.732;-121.358;2024-03-22T10:30:28;101345.38;;;20.82
49785;BMP280;35679;38.732;-121.358;2024-03-22T10:33:19;101342.09;;;20.80
49785;BMP280;35679;38.732;-121.358;2024-03-22T10:36:07;101338.78;;;20.78
49785;BMP280;35679;38.732;-121.358;2024-03-22T10:38:55;101338.78;;;20.78
49785;BMP280;35679;38.732;-121.358;2024-03-22T10:41:44;101328.28;;;20.76
49785;BMP280;35679;38.732;-121.358;2024-03-22T10:44:32;101326.06;;;20.73
49785;BMP280;35679;38.732;-121.358;2024-03-22T10:47:22;101332.22;;;20.74
49785;BMP280;35679;38.732;-121.358;2024-03-22T10:50:12;101335.31;;;20.71
49785;BMP280;35679;38.732;-121.358;2024-03-22T10:53:03;101327.28;;;20.71
49785;BMP280;35679;38.732;-121.358;2024-03-22T10:55:54;101318.63;;;20.69
49785;BMP280;35679;38.732;-121.358;2024-03-22T10:58:44;101322.34;;;20.68
49785;BMP280;35679;38.732;-121.358;2024-03-22T11:01:34;101315.94;;;20.69
49785;BMP280;35679;38.732;-121.358;2024-03-22T11:04:30;101306.47;;;20.66
49785;BMP280;35679;38.732;-121.358;2024-03-22T11:07:21;101313.72;;;20.66
49785;BMP280;35679;38.732;-121.358;2024-03-22T11:10:09;101305.50;;;20.61
49785;BMP280;35679;38.732;-121.358;2024-03-22T11:13:02;101308.81;;;20.56
49785;BMP280;35679;38.732;-121.358;2024-03-22T11:15:50;101318.28;;;20.59
49785;BMP280;35679;38.732;-121.358;2024-03-22T11:18:39;101314.19;;;20.56
49785;BMP280;35679;38.732;-121.358;2024-03-22T11:21:26;101312.53;;;20.55
49785;BMP280;35679;38.732;-121.358;2024-03-22T11:24:15;101304.72;;;20.54
49785;BMP280;35679;38.732;-121.358;2024-03-22T11:27:03;101310.28;;;20.52
49785;BMP280;35679;38.732;-121.358;2024-03-22T11:29:50;101310.50;;;20.51
49785;BMP280;35679;38.732;-121.358;2024-03-22T11:32:43;101318.75;;;20.49
49785;BMP280;35679;38.732;-121.358;2024-03-22T11:35:33;101308.25;;;20.48
49785;BMP280;35679;38.732;-121.358;2024-03-22T11:38:21;101315.50;;;20.47
49785;BMP280;35679;38.732;-121.358;2024-03-22T11:41:09;101321.03;;;20.46
49785;BMP280;35679;38.732;-121.358;2024-03-22T11:43:58;101317.34;;;20.47
49785;BMP280;35679;38.732;-121.358;2024-03-22T11:46:47;101318.81;;;20.43
49785;BMP280;35679;38.732;-121.358;2024-03-22T11:49:35;101324.78;;;20.45
49785;BMP280;35679;38.732;-121.358;2024-03-22T11:52:26;101324.59;;;20.40
49785;BMP280;35679;38.732;-121.358;2024-03-22T11:55:14;101323.78;;;20.40
49785;BMP280;35679;38.732;-121.358;2024-03-22T11:58:02;101320.28;;;20.39
49785;BMP280;35679;38.732;-121.358;2024-03-22T12:00:50;101334.50;;;20.40
49785;BMP280;35679;38.732;-121.358;2024-03-22T12:03:37;101335.16;;;20.35
49785;BMP280;35679;38.732;-121.358;2024-03-22T12:06:27;101342.59;;;20.33
49785;BMP280;35679;38.732;-121.358;2024-03-22T12:09:14;101336.59;;;20.31
49785;BMP280;35679;38.732;-121.358;2024-03-22T12:12:04;101341.16;;;20.31
49785;BMP280;35679;38.732;-121.358;2024-03-22T12:14:51;101334.97;;;20.30
49785;BMP280;35679;38.732;-121.358;2024-03-22T12:17:39;101352.28;;;20.28
49785;BMP280;35679;38.732;-121.358;2024-03-22T12:20:30;101354.38;;;20.26
49785;BMP280;35679;38.732;-121.358;2024-03-22T12:23:17;101359.28;;;20.29
49785;BMP280;35679;38.732;-121.358;2024-03-22T12:26:05;101356.63;;;20.29
49785;BMP280;35679;38.732;-121.358;2024-03-22T12:28:53;101342.41;;;20.28
49785;BMP280;35679;38.732;-121.358;2024-03-22T12:31:41;101338.28;;;20.26
49785;BMP280;35679;38.732;-121.358;2024-03-22T12:34:28;101349.81;;;20.26
49785;BMP280;35679;38.732;-121.358;2024-03-22T12:37:16;101344.72;;;20.18
49785;BMP280;35679;38.732;-121.358;2024-03-22T12:40:04;101335.22;;;20.22
49785;BMP280;35679;38.732;-121.358;2024-03-22T12:42:55;101329.84;;;20.22
49785;BMP280;35679;38.732;-121.358;2024-03-22T12:45:43;101322.03;;;20.21
49785;BMP280;35679;38.732;-121.358;2024-03-22T12:48:31;101329.25;;;20.20
49785;BMP280;35679;38.732;-121.358;2024-03-22T12:51:19;101326.78;;;20.19
49785;BMP280;35679;38.732;-121.358;2024-03-22T12:54:07;101325.34;;;20.16
49785;BMP280;35679;38.732;-121.358;2024-03-22T12:56:56;101325.78;;;20.13
49785;BMP280;35679;38.732;-121.358;2024-03-22T12:59:43;101315.66;;;20.15
49785;BMP280;35679;38.732;-121.358;2024-03-22T13:02:33;101319.19;;;20.16
49785;BMP280;35679;38.732;-121.358;2024-03-22T13:05:21;101313.44;;;20.12
49785;BMP280;35679;38.732;-121.358;2024-03-22T13:08:09;101310.34;;;20.09
49785;BMP280;35679;38.732;-121.358;2024-03-22T13:10:56;101309.53;;;20.08
49785;BMP280;35679;38.732;-121.358;2024-03-22T13:13:44;101308.75;;;20.01
49785;BMP280;35679;38.732;-121.358;2024-03-22T13:16:31;101308.31;;;20.04
49785;BMP280;35679;38.732;-121.358;2024-03-22T13:19:20;101307.94;;;20.01
49785;BMP280;35679;38.732;-121.358;2024-03-22T13:22:08;101308.75;;;20.01
49785;BMP280;35679;38.732;-121.358;2024-03-22T13:24:56;101305.88;;;19.96
49785;BMP280;35679;38.732;-121.358;2024-03-22T13:27:44;101320.31;;;19.95
49785;BMP280;35679;38.732;-121.358;2024-03-22T13:30:32;101326.28;;;19.97
49785;BMP280;35679;38.732;-121.358;2024-03-22T13:33:22;101331.03;;;19.95
49785;BMP280;35679;38.732;-121.358;2024-03-22T13:36:09;101331.84;;;19.96
49785;BMP280;35679;38.732;-121.358;2024-03-22T13:38:57;101330.22;;;19.95
49785;BMP280;35679;38.732;-121.358;2024-03-22T13:41:45;101340.72;;;19.90
49785;BMP280;35679;38.732;-121.358;2024-03-22T13:44:33;101339.06;;;19.89
49785;BMP280;35679;38.732;-121.358;2024-03-22T13:47:21;101334.72;;;19.88
49785;BMP280;35679;38.732;-121.358;2024-03-22T13:50:09;101334.09;;;19.86
49785;BMP280;35679;38.732;-121.358;2024-03-22T13:52:56;101335.97;;;19.85
49785;BMP280;35679;38.732;-121.358;2024-03-22T13:55:44;101336.41;;;19.82
49785;BMP280;35679;38.732;-121.358;2024-03-22T13:58:32;101343.81;;;19.80
49785;BMP280;35679;38.732;-121.358;2024-03-22T14:01:20;101338.47;;;19.80
49785;BMP280;35679;38.732;-121.358;2024-03-22T14:04:09;101335.59;;;19.75
49785;BMP280;35679;38.732;-121.358;2024-03-22T14:06:58;101331.06;;;19.76
49785;BMP280;35679;38.732;-121.358;2024-03-22T14:09:45;101330.25;;;19.75
49785;BMP280;35679;38.732;-121.358;2024-03-22T14:12:33;101321.59;;;19.73
49785;BMP280;35679;38.732;-121.358;2024-03-22T14:15:21;101321.81;;;19.72
49785;BMP280;35679;38.732;-121.358;2024-03-22T14:18:09;101316.66;;;19.71
49785;BMP280;35679;38.732;-121.358;2024-03-22T14:20:57;101317.91;;;19.68
49785;BMP280;35679;38.732;-121.358;2024-03-22T14:23:46;101309.06;;;19.68
49785;BMP280;35679;38.732;-121.358;2024-03-22T14:26:34;101319.38;;;19.64
49785;BMP280;35679;38.732;-121.358;2024-03-22T14:29:22;101326.38;;;19.65
49785;BMP280;35679;38.732;-121.358;2024-03-22T14:32:10;101312.50;;;19.81
49785;BMP280;35679;38.732;-121.358;2024-03-22T14:34:57;101307.56;;;19.78
49785;BMP280;35679;38.732;-121.358;2024-03-22T14:37:45;101305.16;;;19.70
49785;BMP280;35679;38.732;-121.358;2024-03-22T14:40:33;101296.09;;;19.65
49785;BMP280;35679;38.732;-121.358;2024-03-22T14:43:26;101302.47;;;19.64
49785;BMP280;35679;38.732;-121.358;2024-03-22T14:46:14;101296.53;;;19.62
49785;BMP280;35679;38.732;-121.358;2024-03-22T14:49:02;101292.59;;;19.58
49785;BMP280;35679;38.732;-121.358;2024-03-22T14:51:50;101294.47;;;19.57
49785;BMP280;35679;38.732;-121.358;2024-03-22T14:54:39;101296.13;;;19.58
49785;BMP280;35679;38.732;-121.358;2024-03-22T14:57:26;101299.63;;;19.59
49785;BMP280;35679;38.732;-121.358;2024-03-22T15:00:15;101302.91;;;19.61
49785;BMP280;35679;38.732;-121.358;2024-03-22T15:03:03;101310.50;;;19.64
49785;BMP280;35679;38.732;-121.358;2024-03-22T15:05:51;101313.59;;;19.67
49785;BMP280;35679;38.732;-121.358;2024-03-22T15:08:40;101318.13;;;19.67
49785;BMP280;35679;38.732;-121.358;2024-03-22T15:11:28;101321.84;;;19.66
49785;BMP280;35679;38.732;-121.358;2024-03-22T15:14:15;101334.19;;;19.67
49785;BMP280;35679;38.732;-121.358;2024-03-22T15:17:04;101340.38;;;19.67